Time;durP1;ratioP1;P1;durP2;ratioP2;P2;SDS_P1;SDS_P2;PMS_P1;PMS_P2;Temp;Humidity;BMP_temperature;BMP_pressure;BME280_temperature;BME280_humidity;BME280_pressure;Samples;Min_cycle;Max_cycle;Signal;HPM_P1;HPM_P2
2023/10/12 00:02:21;;;;;;;8.13;5.13;;;;;;;11.02;100.00;96645.09;6279361;22;20006;-77
2023/10/12 00:04:53;;;;;;;16.75;5.50;;;;;;;11.00;100.00;96647.00;6308040;22;20460;-77
2023/10/12 00:07:25;;;;;;;7.10;4.78;;;;;;;10.94;100.00;96633.47;6307937;22;20073;-77
2023/10/12 00:10:02;;;;;;;7.63;4.88;;;;;;;10.92;100.00;96638.03;6307818;22;20007;-77
2023/10/12 00:12:29;;;;;;;7.88;4.60;;;;;;;10.88;100.00;96643.53;6307906;22;20010;-77
2023/10/12 00:14:55;;;;;;;8.40;5.13;;;;;;;10.86;100.00;96648.09;6308136;22;20003;-77
2023/10/12 00:17:33;;;;;;;10.25;5.05;;;;;;;10.83;100.00;96645.72;6306288;22;20153;-77
2023/10/12 00:19:58;;;;;;;10.05;4.90;;;;;;;10.81;100.00;96652.91;6307393;22;20078;-77
2023/10/12 00:22:24;;;;;;;10.38;5.00;;;;;;;10.82;100.00;96645.81;6306854;22;20485;-77
2023/10/12 00:24:52;;;;;;;11.20;5.78;;;;;;;10.82;100.00;96644.03;6276528;22;20068;-77
2023/10/12 00:27:18;;;;;;;6.47;4.90;;;;;;;10.79;100.00;96636.38;6306977;22;20361;-77
2023/10/12 00:29:48;;;;;;;7.25;4.95;;;;;;;10.79;100.00;96641.66;6307065;22;20022;-77
2023/10/12 00:32:14;;;;;;;9.25;4.63;;;;;;;10.78;100.00;96629.44;6306807;22;20014;-77
2023/10/12 00:34:53;;;;;;;10.57;5.05;;;;;;;10.77;100.00;96626.91;6280711;22;20003;-77
2023/10/12 00:37:18;;;;;;;9.98;4.97;;;;;;;10.76;100.00;96628.72;6307436;22;20455;-77
2023/10/12 00:40:23;;;;;;;10.80;5.60;;;;;;;10.75;100.00;96621.78;6307062;22;20003;-77
2023/10/12 00:42:33;;;;;;;7.50;5.30;;;;;;;10.73;100.00;96631.59;6283737;22;19999;-77
2023/10/12 00:45:19;;;;;;;8.18;5.40;;;;;;;10.67;100.00;96626.78;6307369;22;20033;-77
2023/10/12 00:47:45;;;;;;;;;;;;;;;10.65;100.00;96628.72;6280886;22;20375;-76
2023/10/12 00:50:12;;;;;;;11.15;5.40;;;;;;;10.64;100.00;96627.03;6306367;22;19965;-77
2023/10/12 00:55:36;;;;;;;7.88;5.18;;;;;;;10.62;100.00;96627.16;6307694;22;20073;-77
2023/10/12 00:58:05;;;;;;;6.30;4.80;;;;;;;10.60;100.00;96629.06;6307297;22;20023;-77
2023/10/12 01:00:35;;;;;;;10.73;5.45;;;;;;;10.55;100.00;96629.44;6307485;22;20393;-77
2023/10/12 01:06:05;;;;;;;7.78;5.05;;;;;;;10.54;100.00;96637.44;6307118;22;20010;-77
2023/10/12 01:08:31;;;;;;;7.45;4.80;;;;;;;10.47;100.00;96621.25;6307159;22;20054;-77
2023/10/12 01:10:57;;;;;;;8.55;5.05;;;;;;;10.49;100.00;96627.25;6307670;22;20023;-77
2023/10/12 01:13:26;;;;;;;8.73;5.22;;;;;;;10.53;100.00;96625.22;6279617;22;20101;-77
2023/10/12 01:15:55;;;;;;;9.90;5.07;;;;;;;10.54;100.00;96625.13;6307132;22;19999;-77
2023/10/12 01:18:28;;;;;;;6.05;5.20;;;;;;;10.48;100.00;96620.31;6307089;22;20007;-77
2023/10/12 01:20:53;;;;;;;9.48;5.68;;;;;;;10.45;100.00;96616.13;6307555;22;20005;-77
2023/10/12 01:23:19;;;;;;;8.07;5.45;;;;;;;10.43;100.00;96618.06;6280172;22;20038;-77
2023/10/12 01:25:47;;;;;;;9.85;5.18;;;;;;;10.41;100.00;96606.81;6307649;22;19995;-77
2023/10/12 01:28:15;;;;;;;6.05;4.85;;;;;;;10.37;100.00;96612.38;6307253;22;20405;-77
2023/10/12 01:30:40;;;;;;;9.40;4.85;;;;;;;10.34;100.00;96600.28;6307972;22;20007;-78
2023/10/12 01:33:06;;;;;;;14.73;5.07;;;;;;;10.35;100.00;96598.50;6308002;22;20390;-77
2023/10/12 01:35:48;;;;;;;6.82;4.95;;;;;;;10.34;100.00;96602.09;6307391;22;19995;-77
2023/10/12 01:38:14;;;;;;;8.23;5.80;;;;;;;10.31;100.00;96597.91;6307549;22;20009;-77
2023/10/12 01:40:52;;;;;;;6.55;5.00;;;;;;;10.29;100.00;96603.28;6307421;22;20417;-77
2023/10/12 01:43:18;;;;;;;9.15;4.97;;;;;;;10.30;100.00;96599.72;6307048;22;20544;-77
2023/10/12 01:45:47;;;;;;;10.38;5.50;;;;;;;10.24;100.00;96610.69;6307812;22;20349;-78
2023/10/12 01:48:16;;;;;;;8.85;5.07;;;;;;;10.23;100.00;96610.81;6307367;22;20139;-79
2023/10/12 01:50:43;;;;;;;8.18;5.13;;;;;;;10.22;100.00;96609.97;6307438;22;19999;-78
2023/10/12 01:55:46;;;;;;;9.60;5.35;;;;;;;10.12;100.00;96607.19;6307233;22;20027;-79
2023/10/12 01:58:15;;;;;;;7.13;5.38;;;;;;;10.15;100.00;96616.66;6307295;22;20010;-78
2023/10/12 02:00:48;;;;;;;9.57;5.57;;;;;;;10.12;100.00;96612.44;6307221;22;20021;-78
2023/10/12 02:05:58;;;;;;;10.57;5.03;;;;;;;10.10;100.00;96611.72;6307170;22;20325;-78
2023/10/12 02:08:34;;;;;;;7.40;5.38;;;;;;;10.09;100.00;96603.97;6307791;22;20003;-78
2023/10/12 02:11:26;;;;;;;8.45;5.40;;;;;;;10.08;100.00;96605.75;6307583;22;20079;-78
2023/10/12 02:13:54;;;;;;;8.90;5.05;;;;;;;10.07;100.00;96600.63;6307237;22;20010;-78
2023/10/12 02:16:39;;;;;;;8.45;5.38;;;;;;;10.05;100.00;96587.56;6307753;22;20070;-78
2023/10/12 02:19:07;;;;;;;12.60;5.63;;;;;;;10.01;100.00;96591.41;6307310;22;20007;-78
2023/10/12 02:21:37;;;;;;;11.13;5.40;;;;;;;9.97;100.00;96590.78;6306557;22;20361;-78
2023/10/12 02:26:38;;;;;;;7.07;5.35;;;;;;;9.90;100.00;96597.47;6311129;22;20007;-78
2023/10/12 02:34:16;;;;;;;9.07;4.53;;;;;;;9.90;100.00;96597.47;6311416;22;20013;-78
2023/10/12 02:37:30;;;;;;;7.70;4.93;;;;;;;9.86;100.00;96606.56;6311142;22;20066;-78
2023/10/12 02:39:37;;;;;;;8.63;5.25;;;;;;;9.84;100.00;96605.81;6298375;22;20342;-78
2023/10/12 02:47:22;;;;;;;10.82;5.43;;;;;;;9.82;100.00;96602.44;6311142;22;20003;-78
2023/10/12 02:49:51;;;;;;;10.45;5.90;;;;;;;9.87;100.00;96600.34;6309848;22;20008;-78
2023/10/12 02:52:20;;;;;;;11.10;5.68;;;;;;;9.83;100.00;96604.97;6309986;22;20003;-78
2023/10/12 02:54:50;;;;;;;9.82;5.85;;;;;;;9.79;100.00;96605.31;6284005;22;20004;-77
2023/10/12 02:57:21;;;;;;;8.30;5.70;;;;;;;9.72;100.00;96605.78;6310195;22;20003;-78
2023/10/12 02:59:51;;;;;;;7.93;5.10;;;;;;;9.67;100.00;96602.66;6310527;22;20061;-78
2023/10/12 03:02:22;;;;;;;9.18;5.40;;;;;;;9.69;100.00;96594.63;6311037;22;19995;-78
2023/10/12 03:04:48;;;;;;;11.55;5.80;;;;;;;9.72;100.00;96599.66;6283579;22;20041;-78
2023/10/12 03:07:22;;;;;;;9.45;5.32;;;;;;;9.70;100.00;96593.69;6310604;22;20438;-78
2023/10/12 03:09:57;;;;;;;6.85;4.90;;;;;;;9.68;100.00;96591.19;6310883;22;19991;-78
2023/10/12 03:12:23;;;;;;;9.97;5.23;;;;;;;9.65;100.00;96598.47;6310927;22;20011;-77
2023/10/12 03:14:52;;;;;;;7.85;5.55;;;;;;;9.65;100.00;96599.31;6311277;22;20286;-78
2023/10/12 03:17:19;;;;;;;10.00;5.38;;;;;;;9.63;100.00;96601.22;6258583;22;20007;-78
2023/10/12 03:19:55;;;;;;;8.05;5.47;;;;;;;9.64;100.00;96595.00;6311008;22;20014;-78
2023/10/12 03:22:31;;;;;;;10.98;6.15;;;;;;;9.62;100.00;96598.69;6310616;22;20007;-78
2023/10/12 03:25:05;;;;;;;9.48;5.78;;;;;;;9.57;100.00;96599.88;6310667;22;20070;-78
2023/10/12 03:27:33;;;;;;;8.07;4.93;;;;;;;9.56;100.00;96595.56;6309847;22;20007;-78
2023/10/12 03:30:08;;;;;;;9.00;5.05;;;;;;;9.56;100.00;96599.97;6311089;22;19999;-78
2023/10/12 03:32:33;;;;;;;17.77;10.13;;;;;;;9.51;100.00;96602.09;6283337;22;19995;-77
2023/10/12 03:34:59;;;;;;;9.75;5.90;;;;;;;9.48;100.00;96591.81;6310968;22;20665;-78
2023/10/12 03:43:12;;;;;;;11.90;5.30;;;;;;;9.51;100.00;96591.59;6299910;22;20006;-77
2023/10/12 03:45:49;;;;;;;11.13;5.38;;;;;;;9.48;100.00;96592.66;6310463;22;20053;-76
2023/10/12 03:48:25;;;;;;;8.93;5.53;;;;;;;9.47;100.00;96601.47;6310945;22;20125;-77
2023/10/12 03:50:58;;;;;;;7.75;4.70;;;;;;;9.48;100.00;96602.34;6310125;22;20018;-77
2023/10/12 03:53:34;;;;;;;8.40;5.43;;;;;;;9.48;100.00;96597.91;6310599;22;19999;-77
2023/10/12 03:56:03;;;;;;;12.48;5.85;;;;;;;9.44;100.00;96599.94;6310425;22;20060;-77
2023/10/12 03:58:28;;;;;;;9.05;5.68;;;;;;;9.40;100.00;96601.13;6283133;22;20008;-77
2023/10/12 04:01:07;;;;;;;8.55;5.55;;;;;;;9.39;100.00;96599.41;6309937;22;20052;-76
2023/10/12 04:03:37;;;;;;;10.77;5.63;;;;;;;9.40;100.00;96605.53;6309617;22;20015;-77
2023/10/12 04:06:23;;;;;;;10.45;5.88;;;;;;;9.37;100.00;96614.47;6310636;22;20026;-77
2023/10/12 04:08:54;;;;;;;12.25;8.27;;;;;;;9.38;100.00;96603.00;6309926;22;20070;-77
2023/10/12 04:11:47;;;;;;;8.60;6.55;;;;;;;9.38;100.00;96603.00;6310475;22;20014;-77
2023/10/12 04:16:57;;;;;;;11.07;6.72;;;;;;;9.35;100.00;96605.84;6309556;22;20037;-77
2023/10/12 04:19:33;;;;;;;9.50;5.68;;;;;;;9.31;100.00;96607.88;6309968;22;20078;-76
2023/10/12 04:22:15;;;;;;;9.50;6.22;;;;;;;9.28;100.00;96608.13;6309922;22;20009;-77
2023/10/12 04:24:45;;;;;;;6.88;5.00;;;;;;;9.30;100.00;96611.47;6310225;22;20054;-77
2023/10/12 04:27:24;;;;;;;6.93;5.30;;;;;;;9.28;100.00;96608.13;6309875;22;20485;-77
2023/10/12 04:29:57;;;;;;;13.48;5.47;;;;;;;9.23;100.00;96610.22;6308110;22;20022;-77
2023/10/12 04:32:53;;;;;;;7.45;5.00;;;;;;;9.22;100.00;96619.03;6309714;22;19999;-76
2023/10/12 04:38:46;;;;;;;6.85;5.03;;;;;;;9.22;100.00;96618.22;6291658;22;20006;-76
2023/10/12 04:43:52;;;;;;;10.38;5.68;;;;;;;9.19;100.00;96606.13;6310695;22;20007;-77
2023/10/12 04:48:58;;;;;;;8.43;5.45;;;;;;;9.15;100.00;96602.88;6310047;22;20003;-77
2023/10/12 04:51:30;;;;;;;13.97;8.53;;;;;;;9.15;100.00;96597.63;6310383;22;20030;-77
2023/10/12 04:54:05;;;;;;;8.95;6.50;;;;;;;9.15;100.00;96591.53;6310881;22;20229;-77
2023/10/12 04:56:36;;;;;;;10.32;5.80;;;;;;;9.13;100.00;96588.19;6310188;22;20023;-77
2023/10/12 04:59:16;;;;;;;8.50;5.60;;;;;;;9.13;100.00;96586.38;6310128;22;20007;-77
2023/10/12 05:04:35;;;;;;;11.07;5.50;;;;;;;9.11;100.00;96592.72;6309622;22;20333;-76
2023/10/12 05:09:48;;;;;;;10.05;6.20;;;;;;;9.11;100.00;96598.78;6286355;22;19999;-76
2023/10/12 05:12:17;;;;;;;9.88;6.53;;;;;;;9.01;100.00;96598.63;6282164;22;19999;-76
2023/10/12 05:14:43;;;;;;;15.07;6.05;;;;;;;9.00;100.00;96604.81;6310572;22;20003;-76
2023/10/12 05:17:09;;;;;;;10.35;5.90;;;;;;;9.03;100.00;96609.03;6310068;22;20087;-76
2023/10/12 05:19:35;;;;;;;9.52;5.97;;;;;;;9.07;100.00;96613.09;6310108;22;20060;-77
2023/10/12 05:22:00;;;;;;;12.13;6.43;;;;;;;9.07;100.00;96615.72;6309303;22;19999;-76
2023/10/12 05:24:26;;;;;;;9.55;5.40;;;;;;;9.05;100.00;96620.25;6282194;22;20034;-76
2023/10/12 05:27:09;;;;;;;8.93;5.75;;;;;;;8.99;100.00;96623.34;6309495;22;20393;-77
2023/10/12 05:29:35;;;;;;;11.25;6.43;;;;;;;8.98;100.00;96624.28;6309116;22;19987;-76
2023/10/12 05:32:12;;;;;;;12.65;6.22;;;;;;;9.02;100.00;96625.75;6309770;22;20025;-76
2023/10/12 05:37:16;;;;;;;12.15;5.90;;;;;;;8.96;100.00;96631.44;6309740;22;20078;-76
2023/10/12 05:39:52;;;;;;;13.35;5.80;;;;;;;9.00;100.00;96641.59;6308310;22;20389;-76
2023/10/12 05:42:25;;;;;;;;;;;;;;;8.98;100.00;96640.88;6308613;22;19995;-76
2023/10/12 05:44:51;;;;;;;12.93;5.75;;;;;;;8.99;100.00;96639.91;6305907;22;19910;-78
2023/10/12 05:47:18;;;;;;;16.00;6.30;;;;;;;9.00;100.00;96651.28;6307813;22;20025;-77
2023/10/12 05:49:50;;;;;;;7.93;4.95;;;;;;;8.99;100.00;96639.09;6309120;22;20007;-78
2023/10/12 05:52:17;;;;;;;10.80;5.55;;;;;;;9.02;100.00;96646.75;6307892;22;20056;-82
2023/10/12 05:54:43;;;;;;;13.10;5.85;;;;;;;9.04;100.00;96647.47;6309453;22;20440;-84
2023/10/12 05:57:19;;;;;;;14.05;5.57;;;;;;;9.07;100.00;96636.75;6281906;22;20023;-75
2023/10/12 05:59:46;;;;;;;10.90;5.72;;;;;;;9.09;100.00;96641.91;6305999;22;20082;-77
2023/10/12 06:02:13;;;;;;;7.80;5.13;;;;;;;9.07;100.00;96649.06;6282423;22;20086;-77
2023/10/12 06:04:38;;;;;;;9.27;4.97;;;;;;;9.02;100.00;96639.69;6308505;22;20031;-77
2023/10/12 06:07:05;;;;;;;8.65;5.53;;;;;;;9.05;100.00;96646.53;6309772;22;20003;-78
2023/10/12 06:09:37;;;;;;;10.20;5.30;;;;;;;9.06;100.00;96645.59;6310305;22;20010;-77
2023/10/12 06:12:07;;;;;;;8.25;5.13;;;;;;;9.07;100.00;96641.19;6311167;22;20054;-76
2023/10/12 06:14:37;;;;;;;10.35;5.30;;;;;;;9.10;100.00;96651.47;6283904;22;20101;-78
2023/10/12 06:17:05;;;;;;;9.35;5.07;;;;;;;9.12;100.00;96642.50;6283626;22;20010;-77
2023/10/12 06:19:34;;;;;;;13.90;5.25;;;;;;;9.16;100.00;96654.47;6309875;22;20011;-77
2023/10/12 06:22:13;;;;;;;10.90;5.70;;;;;;;9.14;100.00;96656.38;6283695;22;20005;-77
2023/10/12 06:24:44;;;;;;;9.70;5.30;;;;;;;9.13;100.00;96657.31;6307993;22;20056;-83
2023/10/12 06:27:42;;;;;;;8.70;4.90;;;;;;;9.19;100.00;96660.47;6283533;22;19999;-76
2023/10/12 06:30:05;;;;;;;10.38;5.10;;;;;;;9.25;100.00;96657.41;6286315;22;20275;-76
2023/10/12 06:32:35;;;;;;;10.57;5.07;;;;;;;9.27;100.00;96666.03;6285267;22;20349;-77
2023/10/12 06:45:49;;;;;;;7.65;4.93;;;;;;;9.70;100.00;96681.31;6311606;22;19999;-77
2023/10/12 06:48:58;;;;;;;12.15;4.35;;;;;;;9.79;100.00;96684.22;6311733;22;20003;-76
2023/10/12 06:51:11;;;;;;;8.82;4.63;;;;;;;9.90;100.00;96686.91;6304584;22;20010;-77
2023/10/12 06:53:40;;;;;;;8.60;5.15;;;;;;;9.99;100.00;96685.38;6311520;22;19999;-77
2023/10/12 06:59:21;;;;;;;9.07;5.20;;;;;;;10.20;100.00;96696.09;6285336;22;20011;-77
2023/10/12 07:04:13;;;;;;;9.25;5.03;;;;;;;10.40;100.00;96691.13;6311463;22;20303;-77
2023/10/12 07:07:00;;;;;;;10.60;4.60;;;;;;;10.49;100.00;96693.06;6311701;22;19998;-77
2023/10/12 07:09:37;;;;;;;11.18;5.25;;;;;;;10.59;100.00;96680.91;6311122;22;19995;-77
2023/10/12 07:12:04;;;;;;;15.50;5.10;;;;;;;10.71;100.00;96683.53;6311228;22;20382;-76
2023/10/12 07:14:33;;;;;;;17.17;5.57;;;;;;;10.78;100.00;96686.53;6310868;22;19995;-76
2023/10/12 07:17:01;;;;;;;14.20;5.30;;;;;;;10.76;100.00;96689.31;6310673;22;19996;-77
2023/10/12 07:19:27;;;;;;;9.73;5.00;;;;;;;10.81;100.00;96689.78;6311184;22;20003;-77
2023/10/12 07:21:55;;;;;;;15.00;5.35;;;;;;;10.79;100.00;96702.22;6311165;22;19995;-77
2023/10/12 07:24:26;;;;;;;11.27;5.57;;;;;;;10.82;100.00;96698.50;6283261;22;20014;-76
2023/10/12 07:26:51;;;;;;;14.32;5.07;;;;;;;10.87;100.00;96702.47;6310782;22;20011;-77
2023/10/12 07:29:35;;;;;;;11.95;5.63;;;;;;;10.96;100.00;96703.56;6310635;22;20052;-77
2023/10/12 07:32:08;;;;;;;13.50;4.85;;;;;;;11.06;100.00;96705.47;6311360;22;20006;-77
2023/10/12 07:34:33;;;;;;;13.30;5.13;;;;;;;11.21;100.00;96709.53;6310981;22;20054;-78
2023/10/12 07:36:59;;;;;;;13.38;4.80;;;;;;;11.32;100.00;96706.03;6311303;22;19995;-76
2023/10/12 07:39:38;;;;;;;12.07;5.93;;;;;;;11.51;100.00;96702.81;6310632;22;20329;-78
2023/10/12 07:42:05;;;;;;;10.95;4.80;;;;;;;11.67;100.00;96707.66;6311064;22;20302;-77
2023/10/12 07:44:39;;;;;;;13.05;4.80;;;;;;;11.79;100.00;96697.06;6311040;22;19999;-76
2023/10/12 07:47:14;;;;;;;11.57;4.45;;;;;;;11.90;100.00;96703.16;6311175;22;20003;-77
2023/10/12 07:49:47;;;;;;;9.67;4.53;;;;;;;12.10;100.00;96700.72;6311055;22;19991;-77
2023/10/12 07:57:20;;;;;;;8.30;4.35;;;;;;;12.61;100.00;96672.69;6310485;22;20003;-77
2023/10/12 08:03:17;;;;;;;11.15;5.07;;;;;;;12.94;100.00;96655.91;6310445;22;20011;-77
2023/10/12 08:08:16;;;;;;;10.23;4.68;;;;;;;13.04;100.00;96640.91;6310562;22;20007;-77
2023/10/12 08:13:14;;;;;;;9.82;4.40;;;;;;;13.01;100.00;96641.19;6310452;22;20034;-78
2023/10/12 08:15:55;;;;;;;13.05;4.82;;;;;;;12.98;100.00;96650.19;6310748;22;20309;-77
2023/10/12 08:29:17;;;;;;;8.23;4.45;;;;;;;13.15;100.00;96630.25;6310485;22;20061;-78
2023/10/12 08:31:43;;;;;;;11.50;4.40;;;;;;;13.20;100.00;96644.84;6286153;22;20014;-79
2023/10/12 08:34:41;;;;;;;8.15;3.90;;;;;;;13.21;100.00;96649.16;6310728;22;19999;-77
2023/10/12 08:39:49;;;;;;;8.70;4.03;;;;;;;13.26;100.00;96633.72;6309643;22;20011;-77
2023/10/12 08:45:09;;;;;;;8.63;4.50;;;;;;;13.68;100.00;96660.00;6310515;22;19999;-83
2023/10/12 08:50:25;;;;;;;9.52;4.32;;;;;;;14.05;100.00;96639.94;6310572;22;19999;-76
2023/10/12 08:52:53;;;;;;;5.70;3.53;;;;;;;14.17;100.00;96632.69;6286309;22;20003;-78
2023/10/12 08:55:24;;;;;;;9.88;3.92;;;;;;;14.26;100.00;96612.47;6309511;22;20037;-78
2023/10/12 08:58:15;;;;;;;8.70;4.18;;;;;;;14.44;100.00;96594.88;6310510;22;19999;-78
2023/10/12 09:03:38;;;;;;;6.53;3.75;;;;;;;14.45;100.00;96673.38;6309888;22;20023;-78
2023/10/12 09:06:14;;;;;;;6.60;3.67;;;;;;;14.44;100.00;96678.78;6310373;22;19999;-78
2023/10/12 09:08:39;;;;;;;5.18;4.10;;;;;;;14.50;100.00;96674.75;6309776;22;20054;-78
2023/10/12 09:13:37;;;;;;;10.15;4.05;;;;;;;14.66;100.00;96663.53;6310034;22;20003;-83
2023/10/12 09:16:09;;;;;;;5.22;3.60;;;;;;;14.73;100.00;96643.50;6310314;22;20014;-77
2023/10/12 09:18:47;;;;;;;10.18;4.22;;;;;;;14.86;100.00;96621.94;6309548;22;20018;-77
2023/10/12 09:21:28;;;;;;;9.60;6.53;;;;;;;14.98;100.00;96620.75;6310313;22;20100;-78
2023/10/12 09:26:51;;;;;;;7.50;4.00;;;;;;;15.23;100.00;96588.41;6309977;22;20352;-78
2023/10/12 09:29:40;;;;;;;9.15;4.07;;;;;;;15.28;100.00;96580.81;6308927;22;19999;-77
2023/10/12 09:32:24;;;;;;;7.88;4.03;;;;;;;15.49;100.00;96571.75;6309913;22;19999;-77
2023/10/12 09:37:21;;;;;;;6.15;3.83;;;;;;;15.80;100.00;96544.78;6310100;22;20003;-77
2023/10/12 09:39:48;;;;;;;6.70;3.88;;;;;;;15.93;100.00;96549.78;6281829;22;20064;-77
2023/10/12 09:42:41;;;;;;;9.60;4.25;;;;;;;16.07;100.00;96549.19;6309644;22;20412;-77
2023/10/12 09:45:10;;;;;;;7.35;3.75;;;;;;;16.25;100.00;96546.50;6304578;22;20489;-78
2023/10/12 09:47:45;;;;;;;9.63;4.30;;;;;;;16.51;100.00;96543.00;6308628;22;20400;-77
2023/10/12 09:50:14;;;;;;;5.57;3.75;;;;;;;16.61;100.00;96538.38;6309688;22;19991;-78
2023/10/12 09:52:46;;;;;;;5.85;3.65;;;;;;;16.65;100.00;96530.06;6309295;22;19999;-78
2023/10/12 09:55:23;;;;;;;8.77;4.55;;;;;;;16.88;100.00;96530.34;6310147;22;20021;-78
2023/10/12 09:57:50;;;;;;;10.95;4.30;;;;;;;17.03;100.00;96526.09;6284747;22;20007;-77
2023/10/12 10:00:28;;;;;;;14.25;4.55;;;;;;;17.18;100.00;96528.97;6309848;22;20025;-78
2023/10/12 10:02:59;;;;;;;6.60;3.85;;;;;;;17.21;100.00;96529.63;6310321;22;20094;-78
2023/10/12 10:05:51;;;;;;;5.68;4.38;;;;;;;17.30;100.00;96523.31;6308904;22;20011;-77
2023/10/12 10:08:18;;;;;;;15.48;4.05;;;;;;;17.44;100.00;96524.50;6309370;22;20006;-77
2023/10/12 10:10:45;;;;;;;8.15;4.20;;;;;;;17.51;100.00;96524.66;6309520;22;19999;-77
2023/10/12 10:13:39;;;;;;;6.65;4.07;;;;;;;17.63;100.00;96525.19;6310204;22;20014;-76
2023/10/12 10:16:08;;;;;;;9.45;3.97;;;;;;;17.66;100.00;96509.72;6281967;22;20188;-76
2023/10/12 10:18:45;;;;;;;10.70;4.15;;;;;;;17.73;100.00;96505.38;6309084;22;19995;-77
2023/10/12 10:21:12;;;;;;;9.80;4.40;;;;;;;17.82;100.00;96500.06;6307848;22;20045;-76
2023/10/12 10:23:47;;;;;;;14.98;3.80;;;;;;;17.87;100.00;96495.06;6308977;22;20486;-78
2023/10/12 10:26:23;;;;;;;12.65;4.10;;;;;;;17.89;100.00;96496.53;6309264;22;20003;-76
2023/10/12 10:28:58;;;;;;;7.07;4.22;;;;;;;17.92;100.00;96499.88;6309408;22;20006;-77
2023/10/12 10:31:43;;;;;;;11.05;3.90;;;;;;;18.04;100.00;96494.06;6309935;22;20060;-77
2023/10/12 10:34:12;;;;;;;6.82;3.80;;;;;;;18.15;100.00;96500.88;6309138;22;20010;-77
2023/10/12 10:36:37;;;;;;;9.05;4.35;;;;;;;18.18;100.00;96507.69;6308793;22;20003;-78
2023/10/12 10:41:54;;;;;;;7.00;3.80;;;;;;;18.35;100.00;96505.81;6309862;22;19999;-77
2023/10/12 10:44:22;;;;;;;6.70;3.40;;;;;;;18.51;100.00;96506.75;6309242;22;19995;-77
2023/10/12 10:46:57;;;;;;;9.52;3.58;;;;;;;18.58;100.00;96503.22;6284018;22;19999;-77
2023/10/12 10:49:30;;;;;;;9.07;3.47;;;;;;;18.59;100.00;96502.22;6311053;22;19991;-77
2023/10/12 10:54:37;;;;;;;6.93;3.67;;;;;;;18.68;100.00;96492.34;6311640;22;20015;-78
2023/10/12 10:57:14;;;;;;;6.38;3.53;;;;;;;18.76;100.00;96505.66;6310573;22;20022;-78
2023/10/12 10:59:42;;;;;;;7.53;4.05;;;;;;;18.86;100.00;96494.75;6311301;22;20000;-78
2023/10/12 11:02:11;;;;;;;6.18;3.53;;;;;;;18.97;100.00;96487.38;6311212;22;19996;-77
2023/10/12 11:07:12;;;;;;;8.95;3.60;;;;;;;19.15;100.00;96487.97;6310899;22;20444;-77
2023/10/12 11:12:22;;;;;;;5.88;3.53;;;;;;;19.50;100.00;96471.56;6310945;22;20002;-78
2023/10/12 11:15:05;;;;;;;8.48;3.72;;;;;;;19.68;100.00;96467.75;6279796;22;20358;-77
2023/10/12 11:17:40;;;;;;;5.55;3.33;;;;;;;19.78;100.00;96459.44;6283890;22;20010;-77
2023/10/12 11:20:27;;;;;;;6.93;3.00;;;;;;;19.77;100.00;96450.63;6311050;22;20043;-78
2023/10/12 11:22:55;;;;;;;4.35;2.90;;;;;;;19.72;100.00;96448.47;6310574;22;19999;-78
2023/10/12 11:25:21;;;;;;;4.03;3.03;;;;;;;19.79;100.00;96437.09;6311212;22;20026;-78
2023/10/12 11:27:46;;;;;;;7.50;3.40;;;;;;;19.91;100.00;96438.31;6310686;22;20076;-78
2023/10/12 11:30:19;;;;;;;4.60;3.20;;;;;;;20.03;100.00;96431.53;6284347;22;20353;-78
2023/10/12 11:32:53;;;;;;;8.88;3.20;;;;;;;20.15;100.00;96434.56;6310867;22;19999;-78
2023/10/12 11:35:36;;;;;;;6.53;3.15;;;;;;;20.13;100.00;96428.56;6283900;22;20007;-78
2023/10/12 11:38:03;;;;;;;7.80;3.35;;;;;;;20.14;100.00;96432.06;6310771;22;20007;-78
2023/10/12 11:40:30;;;;;;;9.88;3.95;;;;;;;20.29;100.00;96424.88;6283913;22;20007;-79
2023/10/12 11:42:56;;;;;;;7.10;4.07;;;;;;;20.47;100.00;96421.00;6283819;22;20003;-82
2023/10/12 11:45:22;;;;;;;11.18;3.70;;;;;;;20.61;100.00;96424.66;6283711;22;20002;-83
2023/10/12 11:47:49;;;;;;;10.98;4.30;;;;;;;20.68;100.00;96419.38;6311413;22;19999;-81
2023/10/12 11:50:15;;;;;;;8.80;3.60;;;;;;;20.64;100.00;96426.09;6310477;22;19999;-80
2023/10/12 11:52:41;;;;;;;10.32;3.97;;;;;;;20.66;100.00;96424.91;6310965;22;20018;-81
2023/10/12 11:55:19;;;;;;;5.38;3.35;;;;;;;20.78;100.00;96419.91;6310532;22;20011;-80
2023/10/12 11:57:53;;;;;;;5.90;3.83;;;;;;;21.00;100.00;96417.28;6309965;22;20482;-81
2023/10/12 12:00:22;;;;;;;9.75;3.85;;;;;;;20.95;100.00;96415.16;6307461;22;20003;-80
2023/10/12 12:02:52;;;;;;;9.40;3.50;;;;;;;20.93;100.00;96411.03;6283566;22;20011;-81
2023/10/12 12:05:22;;;;;;;9.70;3.30;;;;;;;20.96;100.00;96414.16;6282553;22;20006;-80
2023/10/12 12:07:51;;;;;;;11.00;3.80;;;;;;;20.89;100.00;96405.22;6310203;22;20003;-82
2023/10/12 12:11:05;;;;;;;9.07;4.00;;;;;;;20.87;100.00;96410.75;6310416;22;19995;-80
2023/10/12 12:13:08;;;;;;;10.55;4.13;;;;;;;20.94;100.00;96408.16;6299101;22;20027;-80
2023/10/12 12:15:35;;;;;;;7.53;3.90;;;;;;;21.02;100.00;96401.84;6309555;22;19999;-83
2023/10/12 12:18:04;;;;;;;6.30;3.80;;;;;;;21.13;100.00;96405.88;6310758;22;20338;-81
2023/10/12 12:20:47;;;;;;;;;;;;;;;21.14;100.00;96400.34;6301888;22;20006;-80
2023/10/12 12:23:13;;;;;;;7.78;3.33;;;;;;;21.10;100.00;96393.69;6310701;22;20326;-81
2023/10/12 12:25:40;;;;;;;8.52;3.90;;;;;;;21.02;100.00;96402.69;6310282;22;19999;-80
2023/10/12 12:28:07;;;;;;;10.60;4.07;;;;;;;21.01;100.00;96402.88;6310398;22;20125;-79
2023/10/12 12:30:45;;;;;;;8.80;3.80;;;;;;;21.09;100.00;96399.25;6283212;22;19995;-80
2023/10/12 12:33:15;;;;;;;12.65;3.53;;;;;;;21.09;100.00;96397.38;6310099;22;20034;-79
2023/10/12 12:35:41;;;;;;;8.38;3.78;;;;;;;21.14;100.00;96394.16;6283156;22;20010;-79
2023/10/12 12:40:54;;;;;;;8.80;3.97;;;;;;;21.08;100.00;96393.06;6310320;22;20332;-79
2023/10/12 12:43:20;;;;;;;8.32;3.25;;;;;;;21.08;100.00;96387.69;6309814;22;20022;-79
2023/10/12 12:45:46;;;;;;;5.68;3.40;;;;;;;21.27;100.00;96386.25;6309501;22;19999;-80
2023/10/12 12:48:11;;;;;;;9.00;3.65;;;;;;;21.35;100.00;96379.94;6309579;22;19999;-79
2023/10/12 12:50:37;;;;;;;5.25;3.35;;;;;;;21.56;100.00;96373.69;6309845;22;19999;-80
2023/10/12 12:53:06;;;;;;;5.97;3.67;;;;;;;21.62;100.00;96372.09;6309361;22;19999;-80
2023/10/12 12:55:32;;;;;;;7.53;3.22;;;;;;;21.59;100.00;96372.50;6310103;22;20002;-80
2023/10/12 12:57:58;;;;;;;5.13;3.15;;;;;;;21.56;100.00;96367.53;6309303;22;20055;-79
2023/10/12 13:00:25;;;;;;;8.02;3.80;;;;;;;21.53;100.00;96358.00;6309740;22;20007;-80
2023/10/12 13:02:50;;;;;;;6.35;3.20;;;;;;;21.57;100.00;96361.94;6310177;22;20033;-81
2023/10/12 13:05:19;;;;;;;7.20;3.78;;;;;;;21.64;100.00;96361.16;6309908;22;20083;-82
2023/10/12 13:07:47;;;;;;;10.40;3.63;;;;;;;21.77;100.00;96352.41;6282643;22;20082;-81
2023/10/12 13:10:13;;;;;;;7.18;3.70;;;;;;;21.85;100.00;96357.63;6308852;22;20355;-82
2023/10/12 13:12:42;;;;;;;4.80;3.35;;;;;;;21.93;100.00;96351.28;6309458;22;20015;-82
2023/10/12 13:15:11;;;;;;;8.15;3.60;;;;;;;21.91;100.00;96346.13;6257063;22;19995;-82
2023/10/12 13:17:37;;;;;;;5.00;3.35;;;;;;;21.91;100.00;96348.78;6309989;22;20028;-82
2023/10/12 13:20:03;;;;;;;6.07;3.15;;;;;;;22.01;100.00;96345.75;6309769;22;19999;-82
2023/10/12 13:22:29;;;;;;;10.82;3.40;;;;;;;22.18;100.00;96354.28;6282465;22;20086;-82
2023/10/12 13:24:57;;;;;;;5.95;3.38;;;;;;;22.27;100.00;96360.31;6310177;22;20085;-82
2023/10/12 13:27:32;;;;;;;6.50;3.20;;;;;;;22.41;100.00;96345.94;6310064;22;20010;-81
2023/10/12 13:30:01;;;;;;;6.20;3.85;;;;;;;22.79;100.00;96351.84;6309984;22;19994;-82
2023/10/12 13:32:27;;;;;;;5.82;3.25;;;;;;;23.09;100.00;96351.47;6309382;22;19999;-81
2023/10/12 13:34:57;;;;;;;8.07;3.55;;;;;;;23.36;100.00;96351.50;6310452;22;20728;-80
2023/10/12 13:37:30;;;;;;;4.20;3.17;;;;;;;23.55;100.00;96355.25;6309110;22;20003;-80
2023/10/12 13:39:57;;;;;;;5.93;3.60;;;;;;;23.74;100.00;96353.53;6309872;22;20172;-80
2023/10/12 13:42:23;;;;;;;10.32;3.92;;;;;;;23.79;100.00;96353.75;6309696;22;19999;-81
2023/10/12 13:44:49;;;;;;;8.60;4.07;;;;;;;23.81;100.00;96354.34;6308746;22;20006;-82
2023/10/12 13:47:15;;;;;;;8.13;3.50;;;;;;;23.83;100.00;96346.91;6309755;22;20067;-80
2023/10/12 13:49:40;;;;;;;9.27;3.55;;;;;;;23.90;100.00;96352.25;6309550;22;20394;-80